createdAt,value
2018-06-16T00:00:10.908Z,12.87
2018-06-16T00:02:37.867Z,11.17
2018-06-16T00:05:04.829Z,11.47
2018-06-16T00:07:31.816Z,11.00
2018-06-16T00:09:58.781Z,11.90
2018-06-16T00:12:25.722Z,11.30
2018-06-16T00:14:52.658Z,12.53
2018-06-16T00:17:19.607Z,11.00
2018-06-16T00:19:46.545Z,11.83
2018-06-16T00:22:13.517Z,12.80
2018-06-16T00:24:40.474Z,12.33
2018-06-16T00:27:07.406Z,12.20
2018-06-16T00:29:34.368Z,11.93
2018-06-16T00:32:01.340Z,11.87
2018-06-16T00:34:28.301Z,10.27
2018-06-16T00:36:55.352Z,12.60
2018-06-16T00:39:22.287Z,11.53
2018-06-16T00:41:49.200Z,11.63
2018-06-16T00:44:16.160Z,11.33
2018-06-16T00:46:43.083Z,11.80
2018-06-16T00:49:10.215Z,11.07
2018-06-16T00:51:37.154Z,12.43
2018-06-16T00:54:04.162Z,12.90
2018-06-16T00:56:31.108Z,12.80
2018-06-16T00:58:58.037Z,12.40
2018-06-16T01:01:24.983Z,12.13
2018-06-16T01:03:52.064Z,11.53
2018-06-16T01:06:19.024Z,11.33
2018-06-16T01:08:45.972Z,12.43
2018-06-16T01:11:12.893Z,13.10
2018-06-16T01:13:39.881Z,13.53
2018-06-16T01:16:06.894Z,13.50
2018-06-16T01:18:33.896Z,13.40
2018-06-16T01:21:00.821Z,13.00
2018-06-16T01:23:27.751Z,12.57
2018-06-16T01:25:54.789Z,12.13
2018-06-16T01:28:21.735Z,12.40
2018-06-16T01:30:48.656Z,11.80
2018-06-16T01:33:15.593Z,12.90
2018-06-16T01:35:42.527Z,13.60
2018-06-16T01:38:09.452Z,12.77
2018-06-16T01:40:36.420Z,13.80
2018-06-16T01:43:03.405Z,13.83
2018-06-16T01:45:30.377Z,15.00
2018-06-16T01:47:57.316Z,14.23
2018-06-16T01:50:24.274Z,14.50
2018-06-16T01:52:51.934Z,14.50
2018-06-16T01:55:18.919Z,15.10
2018-06-16T01:57:45.859Z,14.23
2018-06-16T02:00:12.803Z,13.43
2018-06-16T02:02:39.749Z,14.30
2018-06-16T02:05:06.690Z,14.27
2018-06-16T02:07:33.631Z,13.60
2018-06-16T02:10:00.572Z,14.80
2018-06-16T02:12:27.519Z,14.10
2018-06-16T02:14:54.469Z,13.70
2018-06-16T02:17:21.431Z,13.70
2018-06-16T02:19:48.373Z,14.50
2018-06-16T02:22:15.308Z,14.70
2018-06-16T02:24:42.246Z,14.30
2018-06-16T02:27:09.230Z,14.73
2018-06-16T02:29:36.244Z,15.20
2018-06-16T02:32:03.190Z,14.33
2018-06-16T02:34:30.132Z,14.27
2018-06-16T02:36:57.124Z,16.13
2018-06-16T02:39:24.098Z,15.20
2018-06-16T02:41:51.047Z,14.93
2018-06-16T02:44:18.021Z,15.03
2018-06-16T02:46:44.960Z,15.43
2018-06-16T02:49:11.974Z,15.10
2018-06-16T02:51:39.009Z,14.90
2018-06-16T02:54:05.936Z,14.10
2018-06-16T02:56:32.882Z,15.87
2018-06-16T02:58:59.842Z,15.33
2018-06-16T03:01:26.811Z,15.40
2018-06-16T03:03:53.831Z,15.87
2018-06-16T03:06:20.785Z,15.20
2018-06-16T03:08:47.753Z,15.27
2018-06-16T03:11:14.677Z,14.00
2018-06-16T03:13:41.603Z,15.10
2018-06-16T03:16:08.533Z,13.90
2018-06-16T03:18:35.431Z,14.13
2018-06-16T03:21:02.383Z,14.70
2018-06-16T03:23:29.447Z,16.17
2018-06-16T03:25:56.380Z,14.00
2018-06-16T03:28:23.336Z,13.27
2018-06-16T03:30:50.318Z,14.40
2018-06-16T03:33:17.294Z,13.83
2018-06-16T03:35:44.249Z,14.67
2018-06-16T03:38:11.202Z,14.40
2018-06-16T03:40:38.150Z,14.07
2018-06-16T03:43:05.087Z,13.40
2018-06-16T03:45:32.076Z,15.27
2018-06-16T03:47:59.086Z,14.70
2018-06-16T03:50:25.991Z,14.77
2018-06-16T03:52:53.201Z,14.63
2018-06-16T03:55:20.112Z,14.40
2018-06-16T03:57:47.057Z,12.97
2018-06-16T04:00:15.370Z,18.70
2018-06-16T04:02:42.293Z,14.00
2018-06-16T04:05:09.259Z,12.90
2018-06-16T04:07:36.193Z,13.70
2018-06-16T04:10:03.134Z,12.80
2018-06-16T04:12:30.093Z,14.27
2018-06-16T04:14:57.014Z,13.40
2018-06-16T04:17:23.950Z,13.70
2018-06-16T04:19:51.861Z,13.10
2018-06-16T04:22:19.103Z,14.43
2018-06-16T04:24:46.040Z,14.20
2018-06-16T04:27:12.957Z,14.63
2018-06-16T04:29:40.083Z,15.40
2018-06-16T04:32:07.047Z,15.27
2018-06-16T04:34:34.342Z,15.93
2018-06-16T04:37:01.513Z,14.33
2018-06-16T04:39:28.495Z,16.33
2018-06-16T04:41:55.469Z,14.80
2018-06-16T04:44:22.434Z,13.87
2018-06-16T04:46:49.350Z,14.23
2018-06-16T04:49:16.340Z,13.23
2018-06-16T04:51:43.254Z,15.17
2018-06-16T04:54:10.182Z,14.40
2018-06-16T04:56:37.159Z,14.77
2018-06-16T04:59:04.122Z,14.57
2018-06-16T05:01:31.063Z,14.03
2018-06-16T05:03:57.979Z,13.37
2018-06-16T05:06:25.000Z,13.53
2018-06-16T05:08:51.936Z,14.27
2018-06-16T05:11:18.911Z,15.67
2018-06-16T05:13:45.856Z,14.60
2018-06-16T05:16:12.827Z,15.30
2018-06-16T05:18:39.762Z,14.87
2018-06-16T05:21:06.725Z,16.57
2018-06-16T05:23:33.869Z,15.80
2018-06-16T05:26:00.816Z,16.43
2018-06-16T05:28:27.731Z,15.50
2018-06-16T05:30:54.680Z,15.30
2018-06-16T05:33:21.636Z,16.37
2018-06-16T05:35:48.563Z,15.93
2018-06-16T05:38:15.510Z,15.67
2018-06-16T05:40:42.436Z,16.13
2018-06-16T05:43:09.412Z,15.53
2018-06-16T05:45:36.372Z,16.53
2018-06-16T05:48:03.298Z,16.20
2018-06-16T05:50:30.264Z,14.90
2018-06-16T05:52:57.299Z,14.83
2018-06-16T05:55:24.242Z,16.07
2018-06-16T05:57:51.198Z,15.27
2018-06-16T06:00:18.145Z,16.80
2018-06-16T06:02:45.077Z,15.63
2018-06-16T06:05:12.038Z,16.13
2018-06-16T06:07:39.127Z,16.73
2018-06-16T06:10:06.084Z,14.50
2018-06-16T06:12:33.028Z,15.17
2018-06-16T06:14:59.991Z,14.83
2018-06-16T06:17:26.904Z,15.20
2018-06-16T06:19:53.836Z,15.40
2018-06-16T06:22:20.794Z,14.47
2018-06-16T06:24:47.777Z,15.27
2018-06-16T06:27:15.016Z,15.63
2018-06-16T06:29:42.021Z,15.57
2018-06-16T06:32:08.984Z,14.70
2018-06-16T06:34:35.911Z,15.10
2018-06-16T06:37:02.835Z,15.00
2018-06-16T06:39:29.769Z,15.23
2018-06-16T06:41:56.752Z,15.40
2018-06-16T06:44:23.695Z,15.67
2018-06-16T06:46:50.663Z,14.87
2018-06-16T06:49:17.585Z,14.47
2018-06-16T06:51:45.402Z,14.20
2018-06-16T06:54:12.327Z,15.47
2018-06-16T06:56:39.299Z,14.80
2018-06-16T06:59:06.343Z,14.57
2018-06-16T07:01:33.262Z,14.53
2018-06-16T07:04:00.223Z,14.17
2018-06-16T07:06:27.165Z,14.33
2018-06-16T07:08:54.109Z,13.73
2018-06-16T07:11:21.088Z,15.30
2018-06-16T07:13:48.046Z,14.60
2018-06-16T07:16:15.026Z,14.20
2018-06-16T07:18:41.971Z,15.10
2018-06-16T07:21:08.951Z,16.37
2018-06-16T07:23:35.992Z,13.70
2018-06-16T07:26:02.902Z,14.60
2018-06-16T07:28:29.850Z,14.63
2018-06-16T07:30:56.806Z,13.80
2018-06-16T07:33:23.748Z,13.77
2018-06-16T07:35:50.726Z,13.10
2018-06-16T07:38:17.653Z,13.10
2018-06-16T07:40:44.598Z,12.03
2018-06-16T07:43:11.637Z,13.20
2018-06-16T07:45:38.556Z,12.30
2018-06-16T07:48:05.947Z,13.50
2018-06-16T07:50:32.906Z,13.27
2018-06-16T07:52:59.843Z,13.33
2018-06-16T07:55:26.843Z,13.10
2018-06-16T07:57:53.786Z,11.63
2018-06-16T08:00:20.728Z,11.80
2018-06-16T08:02:48.002Z,10.90
2018-06-16T08:05:14.978Z,11.00
2018-06-16T08:07:42.028Z,10.10
2018-06-16T08:10:09.107Z,10.10
2018-06-16T08:12:36.155Z,9.13
2018-06-16T08:15:03.302Z,10.43
2018-06-16T08:17:30.472Z,9.87
2018-06-16T08:19:57.564Z,9.03
2018-06-16T08:22:24.610Z,9.30
2018-06-16T08:24:51.704Z,10.20
2018-06-16T08:27:18.773Z,8.97
2018-06-16T08:29:45.874Z,9.93
2018-06-16T08:32:12.944Z,9.77
2018-06-16T08:34:40.053Z,9.10
2018-06-16T08:37:07.098Z,10.10
2018-06-16T08:39:34.162Z,9.30
2018-06-16T08:42:01.179Z,9.83
2018-06-16T08:44:28.705Z,10.70
2018-06-16T08:46:55.772Z,9.47
2018-06-16T08:49:22.810Z,7.83
2018-06-16T08:51:49.850Z,8.60
2018-06-16T08:54:16.896Z,8.30
2018-06-16T08:56:43.925Z,8.37
2018-06-16T08:59:10.944Z,8.10
2018-06-16T09:01:37.995Z,8.70
2018-06-16T09:04:05.103Z,8.40
2018-06-16T09:06:32.122Z,8.70
2018-06-16T09:08:59.153Z,9.00
2018-06-16T09:11:26.204Z,8.67
2018-06-16T09:13:53.234Z,8.40
2018-06-16T09:16:20.280Z,8.73
2018-06-16T09:18:47.294Z,9.57
2018-06-16T09:21:14.330Z,8.10
2018-06-16T09:23:41.378Z,8.30
2018-06-16T09:26:08.380Z,8.23
2018-06-16T09:28:35.409Z,9.07
2018-06-16T09:31:02.430Z,6.93
2018-06-16T09:33:29.479Z,6.20
2018-06-16T09:35:56.514Z,7.10
2018-06-16T09:38:23.571Z,6.03
2018-06-16T09:40:50.633Z,8.47
2018-06-16T09:43:17.678Z,4.93
2018-06-16T09:45:44.730Z,5.80
2018-06-16T09:48:11.843Z,6.00
2018-06-16T09:50:38.819Z,6.33
2018-06-16T09:53:05.908Z,5.20
2018-06-16T09:55:33.002Z,5.10
2018-06-16T09:58:00.015Z,4.87
2018-06-16T10:00:33.027Z,4.73
2018-06-16T10:03:00.069Z,5.03
2018-06-16T10:05:27.143Z,4.80
2018-06-16T10:07:54.188Z,6.73
2018-06-16T10:10:21.230Z,5.13
2018-06-16T10:12:48.262Z,5.17
2018-06-16T10:15:15.303Z,4.70
2018-06-16T10:17:42.340Z,5.10
2018-06-16T10:20:09.368Z,5.20
2018-06-16T10:22:36.409Z,5.70
2018-06-16T10:25:03.447Z,8.03
2018-06-16T10:27:30.504Z,4.87
2018-06-16T10:29:57.558Z,6.83
2018-06-16T10:32:24.586Z,4.40
2018-06-16T10:34:51.753Z,5.40
2018-06-16T10:37:18.805Z,4.63
2018-06-16T10:39:45.832Z,4.10
2018-06-16T10:42:12.928Z,4.30
2018-06-16T10:44:40.006Z,7.23
2018-06-16T10:47:07.871Z,5.60
2018-06-16T10:49:35.021Z,4.10
2018-06-16T10:52:02.125Z,5.60
2018-06-16T10:54:29.438Z,6.20
2018-06-16T10:56:57.157Z,7.20
2018-06-16T10:59:24.236Z,3.40
2018-06-16T11:01:51.352Z,3.97
2018-06-16T11:04:18.450Z,4.73
2018-06-16T11:06:45.552Z,6.07
2018-06-16T11:09:12.721Z,3.93
2018-06-16T11:11:39.796Z,4.97
2018-06-16T11:14:07.293Z,4.20
2018-06-16T11:16:34.335Z,4.70
2018-06-16T11:19:01.436Z,6.83
2018-06-16T11:21:28.446Z,3.00
2018-06-16T11:23:55.504Z,3.17
2018-06-16T11:26:22.559Z,3.30
2018-06-16T11:28:49.670Z,2.43
2018-06-16T11:31:16.844Z,3.50
2018-06-16T11:33:43.897Z,3.70
2018-06-16T11:36:10.951Z,5.10
2018-06-16T11:38:38.018Z,4.00
2018-06-16T11:41:05.085Z,4.10
2018-06-16T11:43:32.159Z,4.93
2018-06-16T11:45:59.187Z,4.80
2018-06-16T11:48:26.221Z,5.17
2018-06-16T11:50:53.282Z,5.03
2018-06-16T11:53:20.317Z,5.13
2018-06-16T11:55:47.481Z,5.93
2018-06-16T11:58:14.603Z,5.20
2018-06-16T12:00:41.614Z,5.87
2018-06-16T12:03:08.699Z,4.97
2018-06-16T12:05:35.713Z,4.63
2018-06-16T12:08:02.770Z,7.10
2018-06-16T12:10:29.843Z,5.67
2018-06-16T12:12:56.886Z,5.77
2018-06-16T12:15:23.920Z,6.50
2018-06-16T12:17:50.965Z,6.00
2018-06-16T12:20:18.041Z,5.97
2018-06-16T12:22:45.087Z,7.20
2018-06-16T12:25:12.131Z,6.37
2018-06-16T12:27:39.167Z,6.97
2018-06-16T12:30:06.283Z,8.10
2018-06-16T12:32:33.381Z,7.57
2018-06-16T12:35:00.578Z,7.90
2018-06-16T12:37:27.619Z,8.50
2018-06-16T12:39:54.679Z,8.73
2018-06-16T12:42:22.015Z,9.20
2018-06-16T12:44:49.027Z,7.53
2018-06-16T12:47:16.076Z,8.90
2018-06-16T12:49:43.118Z,8.83
2018-06-16T12:52:10.181Z,9.40
2018-06-16T12:54:37.321Z,9.60
2018-06-16T12:57:04.369Z,10.30
2018-06-16T12:59:31.458Z,8.43
2018-06-16T13:01:58.924Z,8.40
2018-06-16T13:04:25.978Z,10.20
2018-06-16T13:06:53.040Z,8.63
2018-06-16T13:09:20.067Z,9.43
2018-06-16T13:11:47.120Z,9.90
2018-06-16T13:14:14.164Z,8.10
2018-06-16T13:16:41.235Z,8.47
2018-06-16T13:19:08.272Z,10.30
2018-06-16T13:21:35.320Z,8.90
2018-06-16T13:24:02.395Z,7.90
2018-06-16T13:26:29.434Z,8.67
2018-06-16T13:28:56.498Z,8.33
2018-06-16T13:31:24.114Z,8.10
2018-06-16T13:33:51.171Z,8.73
2018-06-16T13:36:18.388Z,9.33
2018-06-16T13:38:45.450Z,8.43
2018-06-16T13:41:12.511Z,9.87
2018-06-16T13:43:39.596Z,8.40
2018-06-16T13:46:06.655Z,8.50
2018-06-16T13:48:33.690Z,9.03
2018-06-16T13:51:00.727Z,8.17
2018-06-16T13:53:27.927Z,8.00
2018-06-16T13:55:55.025Z,8.30
2018-06-16T13:58:22.058Z,7.73
2018-06-16T14:00:49.100Z,7.30
2018-06-16T14:03:16.118Z,7.47
2018-06-16T14:05:43.162Z,8.90
2018-06-16T14:08:10.206Z,7.30
2018-06-16T14:10:37.456Z,7.33
2018-06-16T14:13:05.494Z,7.23
2018-06-16T14:15:32.530Z,7.43
2018-06-16T14:17:59.551Z,14.43
2018-06-16T14:20:26.684Z,6.93
2018-06-16T14:22:53.709Z,7.10
2018-06-16T14:25:20.746Z,7.00
2018-06-16T14:27:47.810Z,7.50
2018-06-16T14:30:14.830Z,5.73
2018-06-16T14:32:41.874Z,6.57
2018-06-16T14:35:08.947Z,7.30
2018-06-16T14:37:36.014Z,8.53
2018-06-16T14:40:03.045Z,7.30
2018-06-16T14:42:30.089Z,7.10
2018-06-16T14:44:57.124Z,7.67
2018-06-16T14:47:24.143Z,8.10
2018-06-16T14:49:51.218Z,7.90
2018-06-16T14:52:18.285Z,7.40
2018-06-16T14:54:45.402Z,7.30
2018-06-16T14:57:12.469Z,10.33
2018-06-16T14:59:39.577Z,8.67
2018-06-16T15:02:06.575Z,9.00
2018-06-16T15:04:33.640Z,9.40
2018-06-16T15:07:00.665Z,10.60
2018-06-16T15:09:27.988Z,9.27
2018-06-16T15:11:54.994Z,9.70
2018-06-16T15:14:22.018Z,8.80
2018-06-16T15:16:49.049Z,8.50
2018-06-16T15:19:16.075Z,8.60
2018-06-16T15:21:43.116Z,8.17
2018-06-16T15:24:10.199Z,8.50
2018-06-16T15:26:37.296Z,8.40
2018-06-16T15:29:04.366Z,7.17
2018-06-16T15:31:31.392Z,7.77
2018-06-16T15:33:58.524Z,6.70
2018-06-16T15:36:25.557Z,6.90
2018-06-16T15:38:52.608Z,7.10
2018-06-16T15:41:19.674Z,7.30
2018-06-16T15:43:47.390Z,7.30
2018-06-16T15:46:14.505Z,8.23
2018-06-16T15:48:42.058Z,8.90
2018-06-16T15:51:09.120Z,9.70
2018-06-16T15:53:36.158Z,7.17
2018-06-16T15:56:03.204Z,7.27
2018-06-16T15:58:30.247Z,8.30
2018-06-16T16:00:57.262Z,8.47
2018-06-16T16:03:24.319Z,8.87
2018-06-16T16:05:51.452Z,8.33
2018-06-16T16:08:18.470Z,9.17
2018-06-16T16:10:45.552Z,8.30
2018-06-16T16:13:12.559Z,7.13
2018-06-16T16:15:39.597Z,8.00
2018-06-16T16:18:07.288Z,8.23
2018-06-16T16:20:35.057Z,8.50
2018-06-16T16:23:02.715Z,8.87
2018-06-16T16:25:30.466Z,9.13
2018-06-16T16:27:58.244Z,9.50
2018-06-16T16:30:25.356Z,9.20
2018-06-16T16:32:52.417Z,8.97
2018-06-16T16:35:20.790Z,8.70
2018-06-16T16:37:48.537Z,10.10
2018-06-16T16:40:15.654Z,8.67
2018-06-16T16:42:43.292Z,8.60
2018-06-16T16:45:10.606Z,8.77
2018-06-16T16:47:37.683Z,9.40
2018-06-16T16:50:04.746Z,9.10
2018-06-16T16:52:31.820Z,9.87
2018-06-16T16:54:58.834Z,9.23
2018-06-16T16:57:25.845Z,9.80
2018-06-16T16:59:52.870Z,9.23
2018-06-16T17:02:19.920Z,10.63
2018-06-16T17:04:47.096Z,8.73
2018-06-16T17:07:15.274Z,8.33
2018-06-16T17:09:43.885Z,9.50
2018-06-16T17:12:11.346Z,9.70
2018-06-16T17:14:39.155Z,11.30
2018-06-16T17:17:06.213Z,10.63
2018-06-16T17:19:33.506Z,9.80
2018-06-16T17:22:00.627Z,11.93
2018-06-16T17:24:27.658Z,10.33
2018-06-16T17:26:54.701Z,10.87
2018-06-16T17:29:21.755Z,10.30
2018-06-16T17:31:48.805Z,9.23
2018-06-16T17:34:15.850Z,10.37
2018-06-16T17:36:42.824Z,9.20
2018-06-16T17:39:10.418Z,9.63
2018-06-16T17:41:37.349Z,11.20
2018-06-16T17:44:04.332Z,11.00
2018-06-16T17:46:31.299Z,13.27
2018-06-16T17:48:58.404Z,11.70
2018-06-16T17:51:25.389Z,11.47
2018-06-16T17:53:52.530Z,11.37
2018-06-16T17:56:19.520Z,11.77
2018-06-16T17:58:46.592Z,11.00
2018-06-16T18:01:13.684Z,11.23
2018-06-16T18:03:40.913Z,11.30
2018-06-16T18:06:07.902Z,12.20
2018-06-16T18:08:34.895Z,10.43
2018-06-16T18:11:01.886Z,13.27
2018-06-16T18:13:28.934Z,10.57
2018-06-16T18:15:55.927Z,11.90
2018-06-16T18:18:22.914Z,12.40
2018-06-16T18:20:50.151Z,11.27
2018-06-16T18:23:17.087Z,10.73
2018-06-16T18:25:44.027Z,12.13
2018-06-16T18:28:10.986Z,12.20
2018-06-16T18:30:37.919Z,11.10
2018-06-16T18:33:05.018Z,11.03
2018-06-16T18:35:31.984Z,11.50
2018-06-16T18:37:58.946Z,11.80
2018-06-16T18:40:25.892Z,9.70
2018-06-16T18:42:52.886Z,11.23
2018-06-16T18:45:19.848Z,12.40
2018-06-16T18:47:46.913Z,11.63
2018-06-16T18:50:13.897Z,12.37
2018-06-16T18:52:40.895Z,11.17
2018-06-16T18:55:07.898Z,13.00
2018-06-16T18:57:34.828Z,11.60
2018-06-16T19:00:01.854Z,12.70
2018-06-16T19:02:29.070Z,13.27
2018-06-16T19:04:56.249Z,13.60
2018-06-16T19:07:23.234Z,12.40
2018-06-16T19:09:50.192Z,13.00
2018-06-16T19:12:17.167Z,12.20
2018-06-16T19:14:44.787Z,13.40
2018-06-16T19:17:11.718Z,14.60
2018-06-16T19:19:38.723Z,13.57
2018-06-16T19:22:05.669Z,14.03
2018-06-16T19:24:32.601Z,12.53
2018-06-16T19:26:59.561Z,13.83
2018-06-16T19:29:26.556Z,14.47
2018-06-16T19:31:53.538Z,14.40
2018-06-16T19:34:20.475Z,13.70
2018-06-16T19:36:47.398Z,14.40
2018-06-16T19:39:14.339Z,15.50
2018-06-16T19:41:41.367Z,13.07
2018-06-16T19:44:09.027Z,13.10
2018-06-16T19:46:36.056Z,12.90
2018-06-16T19:49:02.999Z,14.13
2018-06-16T19:51:29.928Z,12.60
2018-06-16T19:53:56.891Z,12.70
2018-06-16T19:56:23.880Z,13.63
2018-06-16T19:58:50.964Z,14.47
2018-06-16T20:01:17.899Z,14.80
2018-06-16T20:03:44.836Z,13.20
2018-06-16T20:06:11.802Z,13.63
2018-06-16T20:08:38.793Z,13.93
2018-06-16T20:11:05.907Z,14.60
2018-06-16T20:13:32.876Z,14.20
2018-06-16T20:15:59.970Z,14.20
2018-06-16T20:18:26.888Z,13.97
2018-06-16T20:20:53.877Z,13.00
2018-06-16T20:23:20.844Z,13.90
2018-06-16T20:25:47.800Z,14.40
2018-06-16T20:28:14.806Z,14.50
2018-06-16T20:30:41.737Z,14.37
2018-06-16T20:33:08.709Z,15.13
2018-06-16T20:35:35.666Z,14.67
2018-06-16T20:38:02.616Z,13.40
2018-06-16T20:40:29.579Z,13.20
2018-06-16T20:42:56.556Z,15.07
2018-06-16T20:45:23.498Z,12.47
2018-06-16T20:47:50.482Z,14.40
2018-06-16T20:50:17.417Z,12.00
2018-06-16T20:52:44.506Z,13.10
2018-06-16T20:55:12.470Z,13.30
2018-06-16T20:57:39.393Z,13.40
2018-06-16T21:00:06.876Z,12.90
2018-06-16T21:02:34.019Z,13.00
2018-06-16T21:05:00.955Z,13.93
2018-06-16T21:07:27.903Z,12.53
2018-06-16T21:09:54.943Z,12.30
2018-06-16T21:12:21.954Z,12.70
2018-06-16T21:14:48.886Z,13.00
2018-06-16T21:17:15.864Z,13.27
2018-06-16T21:19:42.815Z,13.50
2018-06-16T21:22:09.898Z,13.17
2018-06-16T21:24:36.882Z,13.40
2018-06-16T21:27:03.829Z,14.07
2018-06-16T21:29:30.804Z,16.10
2018-06-16T21:31:57.796Z,19.57
2018-06-16T21:34:24.911Z,17.23
2018-06-16T21:36:51.868Z,15.37
2018-06-16T21:39:18.841Z,15.20
2018-06-16T21:41:45.819Z,16.20
2018-06-16T21:44:12.839Z,17.00
2018-06-16T21:46:39.915Z,13.57
2018-06-16T21:49:06.885Z,15.03
2018-06-16T21:51:33.863Z,15.10
2018-06-16T21:54:00.835Z,14.90
2018-06-16T21:56:27.837Z,14.37
2018-06-16T21:58:54.789Z,13.83
2018-06-16T22:01:22.327Z,14.83
2018-06-16T22:03:50.177Z,16.10
2018-06-16T22:06:17.404Z,15.57
2018-06-16T22:08:44.377Z,14.37
2018-06-16T22:11:11.355Z,15.30
2018-06-16T22:13:38.272Z,15.80
2018-06-16T22:16:05.269Z,15.60
2018-06-16T22:18:32.380Z,14.57
2018-06-16T22:20:59.321Z,16.47
2018-06-16T22:23:26.274Z,24.17
2018-06-16T22:25:54.123Z,20.30
2018-06-16T22:28:21.175Z,21.00
2018-06-16T22:30:48.524Z,19.43
2018-06-16T22:33:15.477Z,17.60
2018-06-16T22:35:42.428Z,16.63
2018-06-16T22:38:09.514Z,17.23
2018-06-16T22:40:36.472Z,20.27
2018-06-16T22:43:03.485Z,15.63
2018-06-16T22:45:30.400Z,14.80
2018-06-16T22:47:58.362Z,14.63
2018-06-16T22:50:25.599Z,16.20
2018-06-16T22:52:52.797Z,16.07
2018-06-16T22:55:19.726Z,14.83
2018-06-16T22:57:46.638Z,14.23
2018-06-16T23:00:21.588Z,14.97
2018-06-16T23:02:48.838Z,14.87
2018-06-16T23:05:15.796Z,13.80
2018-06-16T23:07:42.734Z,15.77
2018-06-16T23:10:09.676Z,15.43
2018-06-16T23:12:36.607Z,14.73
2018-06-16T23:15:03.549Z,16.03
2018-06-16T23:17:30.622Z,15.70
2018-06-16T23:19:57.573Z,15.43
2018-06-16T23:22:24.514Z,15.60
2018-06-16T23:24:51.750Z,15.40
2018-06-16T23:27:18.682Z,15.13
2018-06-16T23:29:45.597Z,16.00
2018-06-16T23:32:12.508Z,16.07
2018-06-16T23:34:39.495Z,15.90
2018-06-16T23:37:06.536Z,16.73
2018-06-16T23:39:33.484Z,18.20
2018-06-16T23:42:00.442Z,15.97
2018-06-16T23:44:27.733Z,15.80
2018-06-16T23:46:54.883Z,17.13
2018-06-16T23:49:21.811Z,16.80
2018-06-16T23:51:48.730Z,17.00
2018-06-16T23:54:15.914Z,17.20
2018-06-16T23:56:42.943Z,16.80
2018-06-16T23:59:09.944Z,17.50
